sensor_id;sensor_type;location;lat;lon;timestamp;P1;durP1;ratioP1;P2;durP2;ratioP2
21480;SDS011;10902;48.158;8.634;2023-02-11T00:01:10;61.65;;;32.17;;
21480;SDS011;10902;48.158;8.634;2023-02-11T00:03:41;62.53;;;32.97;;
21480;SDS011;10902;48.158;8.634;2023-02-11T00:06:06;56.53;;;32.13;;
21480;SDS011;10902;48.158;8.634;2023-02-11T00:08:35;58.15;;;33.47;;
21480;SDS011;10902;48.158;8.634;2023-02-11T00:11:02;59.78;;;32.83;;
21480;SDS011;10902;48.158;8.634;2023-02-11T00:13:28;60.60;;;34.47;;
21480;SDS011;10902;48.158;8.634;2023-02-11T00:15:54;59.78;;;33.08;;
21480;SDS011;10902;48.158;8.634;2023-02-11T00:18:19;55.60;;;31.23;;
21480;SDS011;10902;48.158;8.634;2023-02-11T00:20:45;58.75;;;31.33;;
21480;SDS011;10902;48.158;8.634;2023-02-11T00:23:10;57.17;;;31.95;;
21480;SDS011;10902;48.158;8.634;2023-02-11T00:25:40;63.13;;;33.22;;
21480;SDS011;10902;48.158;8.634;2023-02-11T00:28:06;59.13;;;31.90;;
21480;SDS011;10902;48.158;8.634;2023-02-11T00:30:33;59.63;;;32.13;;
21480;SDS011;10902;48.158;8.634;2023-02-11T00:32:58;59.88;;;33.45;;
21480;SDS011;10902;48.158;8.634;2023-02-11T00:35:24;62.70;;;32.03;;
21480;SDS011;10902;48.158;8.634;2023-02-11T00:37:51;57.05;;;31.77;;
21480;SDS011;10902;48.158;8.634;2023-02-11T00:40:18;62.53;;;33.55;;
21480;SDS011;10902;48.158;8.634;2023-02-11T00:42:44;62.80;;;35.15;;
21480;SDS011;10902;48.158;8.634;2023-02-11T00:45:10;62.83;;;33.50;;
21480;SDS011;10902;48.158;8.634;2023-02-11T00:47:35;60.10;;;33.17;;
21480;SDS011;10902;48.158;8.634;2023-02-11T00:50:01;58.88;;;33.72;;
21480;SDS011;10902;48.158;8.634;2023-02-11T00:52:29;56.15;;;30.90;;
21480;SDS011;10902;48.158;8.634;2023-02-11T00:54:57;55.17;;;31.70;;
21480;SDS011;10902;48.158;8.634;2023-02-11T00:57:23;59.38;;;33.25;;
21480;SDS011;10902;48.158;8.634;2023-02-11T00:59:48;57.47;;;31.92;;
21480;SDS011;10902;48.158;8.634;2023-02-11T01:02:14;66.90;;;34.20;;
21480;SDS011;10902;48.158;8.634;2023-02-11T01:04:40;60.88;;;32.97;;
21480;SDS011;10902;48.158;8.634;2023-02-11T01:07:06;60.80;;;34.28;;
21480;SDS011;10902;48.158;8.634;2023-02-11T01:09:32;69.65;;;36.65;;
21480;SDS011;10902;48.158;8.634;2023-02-11T01:11:57;64.82;;;35.58;;
21480;SDS011;10902;48.158;8.634;2023-02-11T01:14:23;68.93;;;37.30;;
21480;SDS011;10902;48.158;8.634;2023-02-11T01:16:49;61.80;;;34.63;;
21480;SDS011;10902;48.158;8.634;2023-02-11T01:19:14;61.97;;;34.70;;
21480;SDS011;10902;48.158;8.634;2023-02-11T01:21:40;65.63;;;36.20;;
21480;SDS011;10902;48.158;8.634;2023-02-11T01:24:06;64.53;;;36.22;;
21480;SDS011;10902;48.158;8.634;2023-02-11T01:26:31;64.75;;;34.70;;
21480;SDS011;10902;48.158;8.634;2023-02-11T01:28:57;59.63;;;33.75;;
21480;SDS011;10902;48.158;8.634;2023-02-11T01:31:24;59.30;;;32.70;;
21480;SDS011;10902;48.158;8.634;2023-02-11T01:33:50;63.70;;;34.17;;
21480;SDS011;10902;48.158;8.634;2023-02-11T01:36:16;61.55;;;33.42;;
21480;SDS011;10902;48.158;8.634;2023-02-11T01:38:42;65.63;;;36.55;;
21480;SDS011;10902;48.158;8.634;2023-02-11T01:41:09;64.03;;;33.97;;
21480;SDS011;10902;48.158;8.634;2023-02-11T01:43:41;67.38;;;35.00;;
21480;SDS011;10902;48.158;8.634;2023-02-11T01:46:13;64.40;;;35.08;;
21480;SDS011;10902;48.158;8.634;2023-02-11T01:48:46;68.85;;;35.03;;
21480;SDS011;10902;48.158;8.634;2023-02-11T01:51:17;65.38;;;33.03;;
21480;SDS011;10902;48.158;8.634;2023-02-11T01:53:56;63.15;;;35.05;;
21480;SDS011;10902;48.158;8.634;2023-02-11T01:56:42;64.85;;;33.13;;
21480;SDS011;10902;48.158;8.634;2023-02-11T01:59:31;68.35;;;35.28;;
21480;SDS011;10902;48.158;8.634;2023-02-11T02:02:03;73.47;;;36.22;;
21480;SDS011;10902;48.158;8.634;2023-02-11T02:04:35;74.22;;;37.08;;
21480;SDS011;10902;48.158;8.634;2023-02-11T02:07:08;69.97;;;35.88;;
21480;SDS011;10902;48.158;8.634;2023-02-11T02:09:42;72.80;;;35.88;;
21480;SDS011;10902;48.158;8.634;2023-02-11T02:12:12;65.30;;;35.17;;
21480;SDS011;10902;48.158;8.634;2023-02-11T02:14:38;71.40;;;36.13;;
21480;SDS011;10902;48.158;8.634;2023-02-11T02:17:05;72.03;;;36.65;;
21480;SDS011;10902;48.158;8.634;2023-02-11T02:19:53;75.40;;;39.95;;
21480;SDS011;10902;48.158;8.634;2023-02-11T02:34:01;69.35;;;36.78;;
21480;SDS011;10902;48.158;8.634;2023-02-11T02:36:35;68.40;;;37.53;;
21480;SDS011;10902;48.158;8.634;2023-02-11T02:39:15;72.10;;;37.65;;
21480;SDS011;10902;48.158;8.634;2023-02-11T02:41:45;74.22;;;37.78;;
21480;SDS011;10902;48.158;8.634;2023-02-11T02:44:13;62.97;;;34.85;;
21480;SDS011;10902;48.158;8.634;2023-02-11T02:46:38;72.15;;;36.63;;
21480;SDS011;10902;48.158;8.634;2023-02-11T02:49:05;67.60;;;37.03;;
21480;SDS011;10902;48.158;8.634;2023-02-11T02:51:56;68.93;;;35.53;;
21480;SDS011;10902;48.158;8.634;2023-02-11T03:03:14;69.60;;;35.45;;
21480;SDS011;10902;48.158;8.634;2023-02-11T03:06:03;65.75;;;34.05;;
21480;SDS011;10902;48.158;8.634;2023-02-11T03:08:56;67.68;;;35.00;;
21480;SDS011;10902;48.158;8.634;2023-02-11T03:11:43;61.95;;;34.10;;
21480;SDS011;10902;48.158;8.634;2023-02-11T03:14:10;70.63;;;35.20;;
21480;SDS011;10902;48.158;8.634;2023-02-11T03:16:39;68.30;;;34.42;;
21480;SDS011;10902;48.158;8.634;2023-02-11T03:21:35;67.85;;;35.03;;
21480;SDS011;10902;48.158;8.634;2023-02-11T03:24:11;66.60;;;35.22;;
21480;SDS011;10902;48.158;8.634;2023-02-11T03:26:51;66.28;;;33.47;;
21480;SDS011;10902;48.158;8.634;2023-02-11T03:32:12;71.78;;;34.35;;
21480;SDS011;10902;48.158;8.634;2023-02-11T03:34:50;72.18;;;35.28;;
21480;SDS011;10902;48.158;8.634;2023-02-11T03:37:39;62.55;;;33.38;;
21480;SDS011;10902;48.158;8.634;2023-02-11T03:40:22;61.83;;;33.03;;
21480;SDS011;10902;48.158;8.634;2023-02-11T03:42:58;67.05;;;32.63;;
21480;SDS011;10902;48.158;8.634;2023-02-11T03:45:34;65.40;;;34.25;;
21480;SDS011;10902;48.158;8.634;2023-02-11T03:48:03;70.78;;;36.53;;
21480;SDS011;10902;48.158;8.634;2023-02-11T03:50:36;68.82;;;38.55;;
21480;SDS011;10902;48.158;8.634;2023-02-11T03:53:04;69.43;;;36.00;;
21480;SDS011;10902;48.158;8.634;2023-02-11T03:55:32;74.53;;;38.15;;
21480;SDS011;10902;48.158;8.634;2023-02-11T03:58:01;68.90;;;35.80;;
21480;SDS011;10902;48.158;8.634;2023-02-11T04:00:34;73.93;;;38.70;;
21480;SDS011;10902;48.158;8.634;2023-02-11T04:03:02;74.15;;;37.70;;
21480;SDS011;10902;48.158;8.634;2023-02-11T04:05:28;78.72;;;38.33;;
21480;SDS011;10902;48.158;8.634;2023-02-11T04:07:54;69.57;;;38.38;;
21480;SDS011;10902;48.158;8.634;2023-02-11T04:10:19;77.68;;;39.45;;
21480;SDS011;10902;48.158;8.634;2023-02-11T04:12:45;75.70;;;37.55;;
21480;SDS011;10902;48.158;8.634;2023-02-11T04:15:10;70.53;;;36.75;;
21480;SDS011;10902;48.158;8.634;2023-02-11T04:17:36;77.15;;;38.17;;
21480;SDS011;10902;48.158;8.634;2023-02-11T04:20:02;69.63;;;36.88;;
21480;SDS011;10902;48.158;8.634;2023-02-11T04:22:28;74.20;;;37.88;;
21480;SDS011;10902;48.158;8.634;2023-02-11T04:24:54;77.53;;;37.92;;
21480;SDS011;10902;48.158;8.634;2023-02-11T04:27:20;72.68;;;36.25;;
21480;SDS011;10902;48.158;8.634;2023-02-11T04:29:46;64.15;;;34.78;;
21480;SDS011;10902;48.158;8.634;2023-02-11T04:32:11;64.85;;;33.83;;
21480;SDS011;10902;48.158;8.634;2023-02-11T04:34:37;61.00;;;33.05;;
21480;SDS011;10902;48.158;8.634;2023-02-11T04:37:03;71.07;;;36.65;;
21480;SDS011;10902;48.158;8.634;2023-02-11T04:39:28;72.15;;;35.58;;
21480;SDS011;10902;48.158;8.634;2023-02-11T04:41:54;70.03;;;36.67;;
21480;SDS011;10902;48.158;8.634;2023-02-11T04:44:19;77.03;;;35.10;;
21480;SDS011;10902;48.158;8.634;2023-02-11T04:46:45;73.80;;;37.40;;
21480;SDS011;10902;48.158;8.634;2023-02-11T04:49:11;78.00;;;38.35;;
21480;SDS011;10902;48.158;8.634;2023-02-11T04:51:38;80.80;;;39.38;;
21480;SDS011;10902;48.158;8.634;2023-02-11T04:54:04;72.75;;;36.38;;
21480;SDS011;10902;48.158;8.634;2023-02-11T04:56:30;77.07;;;39.13;;
21480;SDS011;10902;48.158;8.634;2023-02-11T04:58:55;76.72;;;37.72;;
21480;SDS011;10902;48.158;8.634;2023-02-11T05:01:21;70.15;;;35.85;;
21480;SDS011;10902;48.158;8.634;2023-02-11T05:03:47;75.85;;;38.35;;
21480;SDS011;10902;48.158;8.634;2023-02-11T05:06:12;83.50;;;39.53;;
21480;SDS011;10902;48.158;8.634;2023-02-11T05:08:38;78.45;;;38.65;;
21480;SDS011;10902;48.158;8.634;2023-02-11T05:11:04;78.07;;;38.80;;
21480;SDS011;10902;48.158;8.634;2023-02-11T05:13:30;66.25;;;34.13;;
21480;SDS011;10902;48.158;8.634;2023-02-11T05:15:55;68.35;;;34.13;;
21480;SDS011;10902;48.158;8.634;2023-02-11T05:18:21;73.03;;;35.97;;
21480;SDS011;10902;48.158;8.634;2023-02-11T05:20:47;70.00;;;34.75;;
21480;SDS011;10902;48.158;8.634;2023-02-11T05:23:13;78.78;;;39.25;;
21480;SDS011;10902;48.158;8.634;2023-02-11T05:25:38;78.45;;;39.58;;
21480;SDS011;10902;48.158;8.634;2023-02-11T05:28:04;81.90;;;39.80;;
21480;SDS011;10902;48.158;8.634;2023-02-11T05:30:30;77.70;;;38.95;;
21480;SDS011;10902;48.158;8.634;2023-02-11T05:32:56;69.43;;;37.75;;
21480;SDS011;10902;48.158;8.634;2023-02-11T05:35:22;77.95;;;37.60;;
21480;SDS011;10902;48.158;8.634;2023-02-11T05:37:48;70.85;;;36.15;;
21480;SDS011;10902;48.158;8.634;2023-02-11T05:40:14;71.18;;;36.13;;
21480;SDS011;10902;48.158;8.634;2023-02-11T05:42:39;66.93;;;34.63;;
21480;SDS011;10902;48.158;8.634;2023-02-11T05:45:05;66.93;;;34.55;;
21480;SDS011;10902;48.158;8.634;2023-02-11T05:47:31;72.38;;;35.65;;
21480;SDS011;10902;48.158;8.634;2023-02-11T05:49:57;68.60;;;34.38;;
21480;SDS011;10902;48.158;8.634;2023-02-11T05:52:22;66.53;;;33.15;;
21480;SDS011;10902;48.158;8.634;2023-02-11T05:54:48;56.10;;;30.40;;
21480;SDS011;10902;48.158;8.634;2023-02-11T05:57:14;69.82;;;34.05;;
21480;SDS011;10902;48.158;8.634;2023-02-11T05:59:40;70.45;;;35.38;;
21480;SDS011;10902;48.158;8.634;2023-02-11T06:02:06;68.88;;;35.22;;
21480;SDS011;10902;48.158;8.634;2023-02-11T06:04:34;76.95;;;36.47;;
21480;SDS011;10902;48.158;8.634;2023-02-11T06:07:01;71.30;;;37.00;;
21480;SDS011;10902;48.158;8.634;2023-02-11T06:09:27;76.88;;;37.40;;
21480;SDS011;10902;48.158;8.634;2023-02-11T06:11:53;74.18;;;37.38;;
21480;SDS011;10902;48.158;8.634;2023-02-11T06:14:18;67.30;;;33.55;;
21480;SDS011;10902;48.158;8.634;2023-02-11T06:16:44;66.28;;;34.33;;
21480;SDS011;10902;48.158;8.634;2023-02-11T06:19:10;64.53;;;33.53;;
21480;SDS011;10902;48.158;8.634;2023-02-11T06:21:36;56.60;;;31.73;;
21480;SDS011;10902;48.158;8.634;2023-02-11T06:24:02;57.75;;;31.52;;
21480;SDS011;10902;48.158;8.634;2023-02-11T06:26:28;57.03;;;29.95;;
21480;SDS011;10902;48.158;8.634;2023-02-11T06:28:54;59.42;;;31.48;;
21480;SDS011;10902;48.158;8.634;2023-02-11T06:31:20;58.08;;;31.50;;
21480;SDS011;10902;48.158;8.634;2023-02-11T06:33:45;57.80;;;30.63;;
21480;SDS011;10902;48.158;8.634;2023-02-11T06:36:18;53.53;;;29.67;;
21480;SDS011;10902;48.158;8.634;2023-02-11T06:38:45;59.20;;;32.03;;
21480;SDS011;10902;48.158;8.634;2023-02-11T06:41:12;57.58;;;31.05;;
21480;SDS011;10902;48.158;8.634;2023-02-11T06:43:38;55.30;;;30.73;;
21480;SDS011;10902;48.158;8.634;2023-02-11T06:46:05;55.10;;;31.20;;
21480;SDS011;10902;48.158;8.634;2023-02-11T06:48:31;54.55;;;30.83;;
21480;SDS011;10902;48.158;8.634;2023-02-11T06:51:01;60.45;;;31.63;;
21480;SDS011;10902;48.158;8.634;2023-02-11T06:53:28;62.10;;;31.80;;
21480;SDS011;10902;48.158;8.634;2023-02-11T06:55:54;59.63;;;30.98;;
21480;SDS011;10902;48.158;8.634;2023-02-11T06:58:20;56.17;;;29.63;;
21480;SDS011;10902;48.158;8.634;2023-02-11T07:00:45;59.15;;;31.02;;
21480;SDS011;10902;48.158;8.634;2023-02-11T07:03:11;59.05;;;31.13;;
21480;SDS011;10902;48.158;8.634;2023-02-11T07:05:36;51.17;;;29.02;;
21480;SDS011;10902;48.158;8.634;2023-02-11T07:08:02;53.95;;;30.58;;
21480;SDS011;10902;48.158;8.634;2023-02-11T07:10:28;56.10;;;30.50;;
21480;SDS011;10902;48.158;8.634;2023-02-11T07:12:54;48.90;;;26.77;;
21480;SDS011;10902;48.158;8.634;2023-02-11T07:15:20;48.67;;;26.70;;
21480;SDS011;10902;48.158;8.634;2023-02-11T07:17:45;43.88;;;24.92;;
21480;SDS011;10902;48.158;8.634;2023-02-11T07:20:11;42.78;;;24.08;;
21480;SDS011;10902;48.158;8.634;2023-02-11T07:22:38;46.78;;;26.20;;
21480;SDS011;10902;48.158;8.634;2023-02-11T07:25:04;39.85;;;22.70;;
21480;SDS011;10902;48.158;8.634;2023-02-11T07:27:30;43.80;;;24.83;;
21480;SDS011;10902;48.158;8.634;2023-02-11T07:29:55;42.38;;;24.92;;
21480;SDS011;10902;48.158;8.634;2023-02-11T07:32:21;46.53;;;25.95;;
21480;SDS011;10902;48.158;8.634;2023-02-11T07:34:46;46.75;;;26.13;;
21480;SDS011;10902;48.158;8.634;2023-02-11T07:37:12;46.85;;;25.02;;
21480;SDS011;10902;48.158;8.634;2023-02-11T07:39:38;46.55;;;26.40;;
21480;SDS011;10902;48.158;8.634;2023-02-11T07:42:03;50.75;;;27.05;;
21480;SDS011;10902;48.158;8.634;2023-02-11T07:44:29;41.78;;;24.55;;
21480;SDS011;10902;48.158;8.634;2023-02-11T07:46:57;41.28;;;24.15;;
21480;SDS011;10902;48.158;8.634;2023-02-11T07:49:23;40.85;;;23.02;;
21480;SDS011;10902;48.158;8.634;2023-02-11T07:51:48;38.88;;;22.20;;
21480;SDS011;10902;48.158;8.634;2023-02-11T07:54:15;38.72;;;21.55;;
21480;SDS011;10902;48.158;8.634;2023-02-11T07:56:41;40.65;;;22.05;;
21480;SDS011;10902;48.158;8.634;2023-02-11T07:59:06;37.13;;;21.67;;
21480;SDS011;10902;48.158;8.634;2023-02-11T08:01:32;38.05;;;22.00;;
21480;SDS011;10902;48.158;8.634;2023-02-11T08:03:58;37.47;;;20.98;;
21480;SDS011;10902;48.158;8.634;2023-02-11T08:06:26;37.13;;;21.80;;
21480;SDS011;10902;48.158;8.634;2023-02-11T08:08:53;43.88;;;23.92;;
21480;SDS011;10902;48.158;8.634;2023-02-11T08:11:20;39.85;;;24.63;;
21480;SDS011;10902;48.158;8.634;2023-02-11T08:13:47;46.03;;;27.40;;
21480;SDS011;10902;48.158;8.634;2023-02-11T08:16:32;47.00;;;27.20;;
21480;SDS011;10902;48.158;8.634;2023-02-11T08:19:00;49.55;;;25.88;;
21480;SDS011;10902;48.158;8.634;2023-02-11T08:21:28;44.80;;;25.40;;
21480;SDS011;10902;48.158;8.634;2023-02-11T08:23:53;48.13;;;26.90;;
21480;SDS011;10902;48.158;8.634;2023-02-11T08:26:24;45.35;;;26.63;;
21480;SDS011;10902;48.158;8.634;2023-02-11T08:28:52;43.92;;;26.42;;
21480;SDS011;10902;48.158;8.634;2023-02-11T08:31:26;40.33;;;22.83;;
21480;SDS011;10902;48.158;8.634;2023-02-11T08:33:53;40.70;;;23.65;;
21480;SDS011;10902;48.158;8.634;2023-02-11T08:36:23;38.10;;;23.45;;
21480;SDS011;10902;48.158;8.634;2023-02-11T08:38:50;37.97;;;21.83;;
21480;SDS011;10902;48.158;8.634;2023-02-11T08:41:16;36.60;;;22.25;;
21480;SDS011;10902;48.158;8.634;2023-02-11T08:43:42;41.17;;;23.77;;
21480;SDS011;10902;48.158;8.634;2023-02-11T08:46:09;39.83;;;22.92;;
21480;SDS011;10902;48.158;8.634;2023-02-11T08:48:40;37.65;;;22.60;;
21480;SDS011;10902;48.158;8.634;2023-02-11T08:51:06;37.72;;;23.58;;
21480;SDS011;10902;48.158;8.634;2023-02-11T08:53:33;36.00;;;23.52;;
21480;SDS011;10902;48.158;8.634;2023-02-11T08:56:00;40.45;;;23.75;;
21480;SDS011;10902;48.158;8.634;2023-02-11T08:58:25;36.58;;;23.33;;
21480;SDS011;10902;48.158;8.634;2023-02-11T09:00:51;37.33;;;22.92;;
21480;SDS011;10902;48.158;8.634;2023-02-11T09:03:16;35.05;;;21.45;;
21480;SDS011;10902;48.158;8.634;2023-02-11T09:05:46;37.28;;;23.42;;
21480;SDS011;10902;48.158;8.634;2023-02-11T09:08:14;33.08;;;21.35;;
21480;SDS011;10902;48.158;8.634;2023-02-11T09:10:41;36.83;;;23.20;;
21480;SDS011;10902;48.158;8.634;2023-02-11T09:13:06;35.88;;;23.38;;
21480;SDS011;10902;48.158;8.634;2023-02-11T09:15:33;35.88;;;23.00;;
21480;SDS011;10902;48.158;8.634;2023-02-11T09:17:59;33.50;;;21.58;;
21480;SDS011;10902;48.158;8.634;2023-02-11T09:20:25;34.67;;;22.55;;
21480;SDS011;10902;48.158;8.634;2023-02-11T09:22:51;39.15;;;23.60;;
21480;SDS011;10902;48.158;8.634;2023-02-11T09:25:18;35.58;;;22.58;;
21480;SDS011;10902;48.158;8.634;2023-02-11T09:27:45;36.92;;;23.83;;
21480;SDS011;10902;48.158;8.634;2023-02-11T09:30:10;37.03;;;23.77;;
21480;SDS011;10902;48.158;8.634;2023-02-11T09:32:36;37.25;;;23.60;;
21480;SDS011;10902;48.158;8.634;2023-02-11T09:35:02;34.42;;;23.30;;
21480;SDS011;10902;48.158;8.634;2023-02-11T09:37:28;38.65;;;24.42;;
21480;SDS011;10902;48.158;8.634;2023-02-11T09:39:53;36.60;;;24.10;;
21480;SDS011;10902;48.158;8.634;2023-02-11T09:42:56;39.45;;;24.15;;
21480;SDS011;10902;48.158;8.634;2023-02-11T09:45:12;36.22;;;23.10;;
21480;SDS011;10902;48.158;8.634;2023-02-11T09:47:46;39.72;;;23.63;;
21480;SDS011;10902;48.158;8.634;2023-02-11T09:50:21;40.17;;;23.80;;
21480;SDS011;10902;48.158;8.634;2023-02-11T09:52:54;40.15;;;25.42;;
21480;SDS011;10902;48.158;8.634;2023-02-11T09:55:30;39.22;;;23.95;;
21480;SDS011;10902;48.158;8.634;2023-02-11T09:57:56;43.47;;;24.80;;
21480;SDS011;10902;48.158;8.634;2023-02-11T10:08:36;36.50;;;23.13;;
21480;SDS011;10902;48.158;8.634;2023-02-11T10:11:20;36.85;;;23.65;;
21480;SDS011;10902;48.158;8.634;2023-02-11T10:19:46;37.33;;;24.80;;
21480;SDS011;10902;48.158;8.634;2023-02-11T10:22:36;37.08;;;23.90;;
21480;SDS011;10902;48.158;8.634;2023-02-11T10:25:18;35.28;;;23.63;;
21480;SDS011;10902;48.158;8.634;2023-02-11T10:27:44;35.42;;;23.77;;
21480;SDS011;10902;48.158;8.634;2023-02-11T10:35:36;37.00;;;24.80;;
21480;SDS011;10902;48.158;8.634;2023-02-11T10:38:02;37.35;;;24.55;;
21480;SDS011;10902;48.158;8.634;2023-02-11T10:40:28;33.33;;;23.67;;
21480;SDS011;10902;48.158;8.634;2023-02-11T10:42:56;36.75;;;24.45;;
21480;SDS011;10902;48.158;8.634;2023-02-11T10:47:59;32.10;;;22.92;;
21480;SDS011;10902;48.158;8.634;2023-02-11T10:50:28;34.22;;;23.67;;
21480;SDS011;10902;48.158;8.634;2023-02-11T10:53:14;32.35;;;21.92;;
21480;SDS011;10902;48.158;8.634;2023-02-11T10:55:54;32.28;;;23.33;;
21480;SDS011;10902;48.158;8.634;2023-02-11T10:58:25;32.95;;;22.85;;
21480;SDS011;10902;48.158;8.634;2023-02-11T11:00:54;33.97;;;23.63;;
21480;SDS011;10902;48.158;8.634;2023-02-11T11:03:23;32.00;;;22.60;;
21480;SDS011;10902;48.158;8.634;2023-02-11T11:05:52;33.15;;;21.85;;
21480;SDS011;10902;48.158;8.634;2023-02-11T11:11:13;32.83;;;22.55;;
21480;SDS011;10902;48.158;8.634;2023-02-11T11:18:48;31.98;;;19.67;;
21480;SDS011;10902;48.158;8.634;2023-02-11T11:21:17;27.05;;;18.85;;
21480;SDS011;10902;48.158;8.634;2023-02-11T11:24:14;28.52;;;18.77;;
21480;SDS011;10902;48.158;8.634;2023-02-11T11:26:45;27.63;;;19.23;;
21480;SDS011;10902;48.158;8.634;2023-02-11T11:29:18;28.63;;;17.92;;
21480;SDS011;10902;48.158;8.634;2023-02-11T11:32:10;28.20;;;19.23;;
21480;SDS011;10902;48.158;8.634;2023-02-11T11:34:50;28.40;;;19.73;;
21480;SDS011;10902;48.158;8.634;2023-02-11T11:39:54;25.85;;;17.30;;
21480;SDS011;10902;48.158;8.634;2023-02-11T11:44:58;24.65;;;16.50;;
21480;SDS011;10902;48.158;8.634;2023-02-11T11:47:46;24.13;;;16.25;;
21480;SDS011;10902;48.158;8.634;2023-02-11T11:58:14;22.02;;;14.82;;
21480;SDS011;10902;48.158;8.634;2023-02-11T12:00:51;20.15;;;13.93;;
21480;SDS011;10902;48.158;8.634;2023-02-11T12:03:25;23.60;;;13.88;;
21480;SDS011;10902;48.158;8.634;2023-02-11T12:22:06;16.65;;;10.85;;
21480;SDS011;10902;48.158;8.634;2023-02-11T12:25:07;17.27;;;11.63;;
21480;SDS011;10902;48.158;8.634;2023-02-11T12:30:56;15.90;;;10.02;;
21480;SDS011;10902;48.158;8.634;2023-02-11T12:39:12;16.58;;;9.93;;
21480;SDS011;10902;48.158;8.634;2023-02-11T12:45:20;13.52;;;9.32;;
21480;SDS011;10902;48.158;8.634;2023-02-11T12:59:14;11.55;;;7.88;;
21480;SDS011;10902;48.158;8.634;2023-02-11T13:01:57;11.48;;;7.93;;
21480;SDS011;10902;48.158;8.634;2023-02-11T13:04:29;12.52;;;8.90;;
21480;SDS011;10902;48.158;8.634;2023-02-11T13:07:04;12.23;;;8.93;;
21480;SDS011;10902;48.158;8.634;2023-02-11T13:12:58;12.05;;;7.90;;
21480;SDS011;10902;48.158;8.634;2023-02-11T13:15:41;13.73;;;8.90;;
21480;SDS011;10902;48.158;8.634;2023-02-11T13:18:28;12.55;;;8.48;;
21480;SDS011;10902;48.158;8.634;2023-02-11T13:23:43;14.82;;;7.72;;
21480;SDS011;10902;48.158;8.634;2023-02-11T13:29:23;12.45;;;8.70;;
21480;SDS011;10902;48.158;8.634;2023-02-11T13:32:04;12.65;;;9.55;;
21480;SDS011;10902;48.158;8.634;2023-02-11T13:37:25;12.70;;;8.05;;
21480;SDS011;10902;48.158;8.634;2023-02-11T13:40:20;12.63;;;8.18;;
21480;SDS011;10902;48.158;8.634;2023-02-11T13:42:53;11.52;;;7.55;;
21480;SDS011;10902;48.158;8.634;2023-02-11T13:45:40;12.77;;;7.18;;
21480;SDS011;10902;48.158;8.634;2023-02-11T13:48:24;13.60;;;7.72;;
21480;SDS011;10902;48.158;8.634;2023-02-11T13:50:58;12.93;;;7.90;;
21480;SDS011;10902;48.158;8.634;2023-02-11T13:53:27;11.88;;;7.38;;
21480;SDS011;10902;48.158;8.634;2023-02-11T13:56:07;11.00;;;7.50;;
21480;SDS011;10902;48.158;8.634;2023-02-11T13:58:36;11.13;;;7.13;;
21480;SDS011;10902;48.158;8.634;2023-02-11T14:01:12;11.63;;;7.25;;
21480;SDS011;10902;48.158;8.634;2023-02-11T14:10:51;12.57;;;6.90;;
21480;SDS011;10902;48.158;8.634;2023-02-11T14:13:22;10.02;;;6.95;;
21480;SDS011;10902;48.158;8.634;2023-02-11T14:16:03;10.07;;;6.97;;
21480;SDS011;10902;48.158;8.634;2023-02-11T14:21:15;10.88;;;7.50;;
21480;SDS011;10902;48.158;8.634;2023-02-11T14:23:43;10.68;;;7.35;;
21480;SDS011;10902;48.158;8.634;2023-02-11T14:28:45;11.30;;;6.82;;
21480;SDS011;10902;48.158;8.634;2023-02-11T14:31:22;6.90;;;4.18;;
21480;SDS011;10902;48.158;8.634;2023-02-11T14:33:55;4.50;;;2.13;;
21480;SDS011;10902;48.158;8.634;2023-02-11T14:36:56;4.50;;;2.10;;
21480;SDS011;10902;48.158;8.634;2023-02-11T14:39:36;4.60;;;1.98;;
21480;SDS011;10902;48.158;8.634;2023-02-11T14:42:09;5.13;;;2.25;;
21480;SDS011;10902;48.158;8.634;2023-02-11T14:44:42;5.13;;;2.58;;
21480;SDS011;10902;48.158;8.634;2023-02-11T14:47:10;5.57;;;2.40;;
21480;SDS011;10902;48.158;8.634;2023-02-11T14:49:45;4.78;;;2.00;;
21480;SDS011;10902;48.158;8.634;2023-02-11T14:52:28;4.53;;;2.20;;
21480;SDS011;10902;48.158;8.634;2023-02-11T14:55:00;6.38;;;1.95;;
21480;SDS011;10902;48.158;8.634;2023-02-11T14:57:44;7.07;;;2.53;;
21480;SDS011;10902;48.158;8.634;2023-02-11T15:00:16;6.60;;;2.55;;
21480;SDS011;10902;48.158;8.634;2023-02-11T15:02:46;6.00;;;2.40;;
21480;SDS011;10902;48.158;8.634;2023-02-11T15:05:13;5.57;;;2.40;;
21480;SDS011;10902;48.158;8.634;2023-02-11T15:07:50;6.28;;;2.67;;
21480;SDS011;10902;48.158;8.634;2023-02-11T15:10:25;5.28;;;2.70;;
21480;SDS011;10902;48.158;8.634;2023-02-11T15:12:54;5.95;;;2.70;;
21480;SDS011;10902;48.158;8.634;2023-02-11T15:15:21;5.10;;;2.25;;
21480;SDS011;10902;48.158;8.634;2023-02-11T15:17:47;8.23;;;3.30;;
21480;SDS011;10902;48.158;8.634;2023-02-11T15:20:20;5.68;;;2.55;;
21480;SDS011;10902;48.158;8.634;2023-02-11T15:22:50;5.30;;;2.63;;
21480;SDS011;10902;48.158;8.634;2023-02-11T15:25:20;5.28;;;2.75;;
21480;SDS011;10902;48.158;8.634;2023-02-11T15:27:48;5.88;;;2.70;;
21480;SDS011;10902;48.158;8.634;2023-02-11T15:35:22;5.80;;;2.58;;
21480;SDS011;10902;48.158;8.634;2023-02-11T15:37:48;5.45;;;2.60;;
21480;SDS011;10902;48.158;8.634;2023-02-11T15:40:15;6.22;;;2.88;;
21480;SDS011;10902;48.158;8.634;2023-02-11T15:42:59;7.35;;;3.42;;
21480;SDS011;10902;48.158;8.634;2023-02-11T15:45:36;6.13;;;3.50;;
21480;SDS011;10902;48.158;8.634;2023-02-11T15:50:33;6.25;;;3.20;;
21480;SDS011;10902;48.158;8.634;2023-02-11T15:53:02;6.38;;;3.42;;
21480;SDS011;10902;48.158;8.634;2023-02-11T15:55:51;7.43;;;4.40;;
21480;SDS011;10902;48.158;8.634;2023-02-11T15:58:27;7.55;;;3.78;;
21480;SDS011;10902;48.158;8.634;2023-02-11T16:00:53;7.47;;;3.65;;
21480;SDS011;10902;48.158;8.634;2023-02-11T16:03:24;9.63;;;3.90;;
21480;SDS011;10902;48.158;8.634;2023-02-11T16:05:56;7.93;;;3.83;;
21480;SDS011;10902;48.158;8.634;2023-02-11T16:08:39;7.18;;;3.97;;
21480;SDS011;10902;48.158;8.634;2023-02-11T16:11:17;6.55;;;3.75;;
21480;SDS011;10902;48.158;8.634;2023-02-11T16:13:52;8.18;;;4.32;;
21480;SDS011;10902;48.158;8.634;2023-02-11T16:16:18;8.65;;;4.65;;
21480;SDS011;10902;48.158;8.634;2023-02-11T16:18:51;9.95;;;4.80;;
21480;SDS011;10902;48.158;8.634;2023-02-11T16:21:27;6.88;;;4.32;;
21480;SDS011;10902;48.158;8.634;2023-02-11T16:24:06;6.85;;;3.70;;
21480;SDS011;10902;48.158;8.634;2023-02-11T16:26:39;7.95;;;4.50;;
21480;SDS011;10902;48.158;8.634;2023-02-11T16:29:14;7.30;;;3.78;;
21480;SDS011;10902;48.158;8.634;2023-02-11T16:31:42;7.43;;;4.20;;
21480;SDS011;10902;48.158;8.634;2023-02-11T16:34:12;7.63;;;3.72;;
21480;SDS011;10902;48.158;8.634;2023-02-11T16:36:45;16.63;;;9.80;;
21480;SDS011;10902;48.158;8.634;2023-02-11T16:39:12;9.80;;;6.35;;
21480;SDS011;10902;48.158;8.634;2023-02-11T16:41:38;10.13;;;5.03;;
21480;SDS011;10902;48.158;8.634;2023-02-11T16:44:04;9.77;;;6.03;;
21480;SDS011;10902;48.158;8.634;2023-02-11T16:46:30;9.52;;;5.20;;
21480;SDS011;10902;48.158;8.634;2023-02-11T16:48:56;8.90;;;5.30;;
21480;SDS011;10902;48.158;8.634;2023-02-11T16:51:22;8.82;;;5.35;;
21480;SDS011;10902;48.158;8.634;2023-02-11T16:53:48;10.30;;;5.43;;
21480;SDS011;10902;48.158;8.634;2023-02-11T16:56:14;11.40;;;6.13;;
21480;SDS011;10902;48.158;8.634;2023-02-11T16:58:41;12.05;;;7.30;;
21480;SDS011;10902;48.158;8.634;2023-02-11T17:01:08;10.48;;;6.25;;
21480;SDS011;10902;48.158;8.634;2023-02-11T17:03:34;9.77;;;6.07;;